sensor_id;sensor_type;location;lat;lon;timestamp;temperature;humidity
17701;DHT22;8969;48.576;12.580;2024-03-25T00:01:05;4.60;99.90
17701;DHT22;8969;48.576;12.580;2024-03-25T00:03:35;4.50;99.90
17701;DHT22;8969;48.576;12.580;2024-03-25T00:06:01;4.60;99.90
17701;DHT22;8969;48.576;12.580;2024-03-25T00:08:29;4.60;99.90
17701;DHT22;8969;48.576;12.580;2024-03-25T00:10:55;4.60;99.90
17701;DHT22;8969;48.576;12.580;2024-03-25T00:13:22;4.60;99.90
17701;DHT22;8969;48.576;12.580;2024-03-25T00:15:48;4.70;99.90
17701;DHT22;8969;48.576;12.580;2024-03-25T00:18:15;4.70;99.90
17701;DHT22;8969;48.576;12.580;2024-03-25T00:20:43;4.70;99.90
17701;DHT22;8969;48.576;12.580;2024-03-25T00:23:10;4.70;99.90
17701;DHT22;8969;48.576;12.580;2024-03-25T00:25:37;4.70;99.90
17701;DHT22;8969;48.576;12.580;2024-03-25T00:28:05;4.70;99.90
17701;DHT22;8969;48.576;12.580;2024-03-25T00:30:31;4.70;99.90
17701;DHT22;8969;48.576;12.580;2024-03-25T00:32:58;4.70;99.90
17701;DHT22;8969;48.576;12.580;2024-03-25T00:35:24;4.70;99.90
17701;DHT22;8969;48.576;12.580;2024-03-25T00:37:53;4.70;99.90
17701;DHT22;8969;48.576;12.580;2024-03-25T00:40:19;4.70;99.90
17701;DHT22;8969;48.576;12.580;2024-03-25T00:42:47;4.70;99.90
17701;DHT22;8969;48.576;12.580;2024-03-25T00:45:14;4.70;99.90
17701;DHT22;8969;48.576;12.580;2024-03-25T00:47:42;4.70;99.90
17701;DHT22;8969;48.576;12.580;2024-03-25T00:50:08;4.70;99.90
17701;DHT22;8969;48.576;12.580;2024-03-25T00:52:35;4.70;99.90
17701;DHT22;8969;48.576;12.580;2024-03-25T00:55:04;4.70;99.90
17701;DHT22;8969;48.576;12.580;2024-03-25T00:57:31;4.60;99.90
17701;DHT22;8969;48.576;12.580;2024-03-25T00:59:58;4.70;99.90
17701;DHT22;8969;48.576;12.580;2024-03-25T01:02:25;4.70;99.90
17701;DHT22;8969;48.576;12.580;2024-03-25T01:04:53;4.70;99.90
17701;DHT22;8969;48.576;12.580;2024-03-25T01:07:22;4.70;99.90
17701;DHT22;8969;48.576;12.580;2024-03-25T01:09:49;4.70;99.90
17701;DHT22;8969;48.576;12.580;2024-03-25T01:12:18;4.70;99.90
17701;DHT22;8969;48.576;12.580;2024-03-25T01:14:44;4.70;99.90
17701;DHT22;8969;48.576;12.580;2024-03-25T01:17:11;4.70;99.90
17701;DHT22;8969;48.576;12.580;2024-03-25T01:19:37;4.70;99.90
17701;DHT22;8969;48.576;12.580;2024-03-25T01:22:05;4.70;99.90
17701;DHT22;8969;48.576;12.580;2024-03-25T01:24:31;4.70;99.90
17701;DHT22;8969;48.576;12.580;2024-03-25T01:26:58;4.70;99.90
17701;DHT22;8969;48.576;12.580;2024-03-25T01:29:25;4.70;99.90
17701;DHT22;8969;48.576;12.580;2024-03-25T01:31:53;4.60;99.90
17701;DHT22;8969;48.576;12.580;2024-03-25T01:34:19;4.60;99.90
17701;DHT22;8969;48.576;12.580;2024-03-25T01:36:46;4.70;99.90
17701;DHT22;8969;48.576;12.580;2024-03-25T01:39:12;4.70;99.90
17701;DHT22;8969;48.576;12.580;2024-03-25T01:41:39;4.70;99.90
17701;DHT22;8969;48.576;12.580;2024-03-25T01:44:05;4.70;99.90
17701;DHT22;8969;48.576;12.580;2024-03-25T01:46:34;4.70;99.90
17701;DHT22;8969;48.576;12.580;2024-03-25T01:49:00;4.70;99.90
17701;DHT22;8969;48.576;12.580;2024-03-25T01:51:28;4.60;99.90
17701;DHT22;8969;48.576;12.580;2024-03-25T01:53:54;4.60;99.90
17701;DHT22;8969;48.576;12.580;2024-03-25T01:56:23;4.70;99.90
17701;DHT22;8969;48.576;12.580;2024-03-25T01:58:50;4.70;99.90
17701;DHT22;8969;48.576;12.580;2024-03-25T02:01:17;4.70;99.90
17701;DHT22;8969;48.576;12.580;2024-03-25T02:03:47;4.70;99.90
17701;DHT22;8969;48.576;12.580;2024-03-25T02:06:17;4.70;99.90
17701;DHT22;8969;48.576;12.580;2024-03-25T02:08:44;4.70;99.90
17701;DHT22;8969;48.576;12.580;2024-03-25T02:11:11;4.70;99.90
17701;DHT22;8969;48.576;12.580;2024-03-25T02:13:38;4.70;99.90
17701;DHT22;8969;48.576;12.580;2024-03-25T02:16:06;4.70;99.90
17701;DHT22;8969;48.576;12.580;2024-03-25T02:18:33;4.70;99.90
17701;DHT22;8969;48.576;12.580;2024-03-25T02:21:01;4.70;99.90
17701;DHT22;8969;48.576;12.580;2024-03-25T02:23:28;4.70;99.90
17701;DHT22;8969;48.576;12.580;2024-03-25T02:25:57;4.70;99.90
17701;DHT22;8969;48.576;12.580;2024-03-25T02:28:23;4.70;99.90
17701;DHT22;8969;48.576;12.580;2024-03-25T02:30:51;4.70;99.90
17701;DHT22;8969;48.576;12.580;2024-03-25T02:33:17;4.70;99.90
17701;DHT22;8969;48.576;12.580;2024-03-25T02:35:44;4.70;99.90
17701;DHT22;8969;48.576;12.580;2024-03-25T02:38:11;4.70;99.90
17701;DHT22;8969;48.576;12.580;2024-03-25T02:40:39;4.70;99.90
17701;DHT22;8969;48.576;12.580;2024-03-25T02:43:07;4.70;99.90
17701;DHT22;8969;48.576;12.580;2024-03-25T02:45:34;4.70;99.90
17701;DHT22;8969;48.576;12.580;2024-03-25T02:48:00;4.70;99.90
17701;DHT22;8969;48.576;12.580;2024-03-25T02:50:27;4.70;99.90
17701;DHT22;8969;48.576;12.580;2024-03-25T02:52:53;4.70;99.90
17701;DHT22;8969;48.576;12.580;2024-03-25T02:55:20;4.80;99.90
17701;DHT22;8969;48.576;12.580;2024-03-25T02:57:46;4.70;99.90
17701;DHT22;8969;48.576;12.580;2024-03-25T03:00:15;4.70;99.90
17701;DHT22;8969;48.576;12.580;2024-03-25T03:02:41;4.80;99.90
17701;DHT22;8969;48.576;12.580;2024-03-25T03:05:09;4.80;99.90
17701;DHT22;8969;48.576;12.580;2024-03-25T03:07:35;4.80;99.90
17701;DHT22;8969;48.576;12.580;2024-03-25T03:10:02;4.80;99.90
17701;DHT22;8969;48.576;12.580;2024-03-25T03:12:28;4.80;99.90
17701;DHT22;8969;48.576;12.580;2024-03-25T03:14:55;4.80;99.90
17701;DHT22;8969;48.576;12.580;2024-03-25T03:17:23;4.80;99.90
17701;DHT22;8969;48.576;12.580;2024-03-25T03:19:50;4.80;99.90
17701;DHT22;8969;48.576;12.580;2024-03-25T03:22:16;4.80;99.90
17701;DHT22;8969;48.576;12.580;2024-03-25T03:24:43;4.80;99.90
17701;DHT22;8969;48.576;12.580;2024-03-25T03:27:09;4.70;99.90
17701;DHT22;8969;48.576;12.580;2024-03-25T03:29:36;4.70;99.90
17701;DHT22;8969;48.576;12.580;2024-03-25T03:32:02;4.80;99.90
17701;DHT22;8969;48.576;12.580;2024-03-25T03:34:31;4.80;99.90
17701;DHT22;8969;48.576;12.580;2024-03-25T03:36:57;4.80;99.90
17701;DHT22;8969;48.576;12.580;2024-03-25T03:39:24;4.70;99.90
17701;DHT22;8969;48.576;12.580;2024-03-25T03:41:50;4.80;99.90
17701;DHT22;8969;48.576;12.580;2024-03-25T03:44:17;4.70;99.90
17701;DHT22;8969;48.576;12.580;2024-03-25T03:46:43;4.80;99.90
17701;DHT22;8969;48.576;12.580;2024-03-25T03:49:10;4.70;99.90
17701;DHT22;8969;48.576;12.580;2024-03-25T03:51:38;4.70;99.90
17701;DHT22;8969;48.576;12.580;2024-03-25T03:54:05;4.60;99.90
17701;DHT22;8969;48.576;12.580;2024-03-25T03:56:31;4.60;99.90
17701;DHT22;8969;48.576;12.580;2024-03-25T03:58:58;4.60;99.90
17701;DHT22;8969;48.576;12.580;2024-03-25T04:01:24;4.60;99.90
17701;DHT22;8969;48.576;12.580;2024-03-25T04:03:51;4.60;99.90
17701;DHT22;8969;48.576;12.580;2024-03-25T04:06:18;4.60;99.90
17701;DHT22;8969;48.576;12.580;2024-03-25T04:08:46;4.50;99.90
17701;DHT22;8969;48.576;12.580;2024-03-25T04:11:12;4.50;99.90
17701;DHT22;8969;48.576;12.580;2024-03-25T04:13:40;4.40;99.90
17701;DHT22;8969;48.576;12.580;2024-03-25T04:16:06;4.40;99.90
17701;DHT22;8969;48.576;12.580;2024-03-25T04:18:34;4.40;99.90
17701;DHT22;8969;48.576;12.580;2024-03-25T04:21:00;4.40;99.90
17701;DHT22;8969;48.576;12.580;2024-03-25T04:23:27;4.40;99.90
17701;DHT22;8969;48.576;12.580;2024-03-25T04:25:55;4.40;99.90
17701;DHT22;8969;48.576;12.580;2024-03-25T04:28:22;4.40;99.90
17701;DHT22;8969;48.576;12.580;2024-03-25T04:30:52;4.40;99.90
17701;DHT22;8969;48.576;12.580;2024-03-25T04:33:20;4.30;99.90
17701;DHT22;8969;48.576;12.580;2024-03-25T04:35:46;4.30;99.90
17701;DHT22;8969;48.576;12.580;2024-03-25T04:38:16;4.20;99.90
17701;DHT22;8969;48.576;12.580;2024-03-25T04:40:42;4.20;99.90
17701;DHT22;8969;48.576;12.580;2024-03-25T04:43:10;4.20;99.90
17701;DHT22;8969;48.576;12.580;2024-03-25T04:45:36;4.20;99.90
17701;DHT22;8969;48.576;12.580;2024-03-25T04:48:04;4.20;99.90
17701;DHT22;8969;48.576;12.580;2024-03-25T04:50:30;4.20;99.90
17701;DHT22;8969;48.576;12.580;2024-03-25T04:52:57;4.10;99.90
17701;DHT22;8969;48.576;12.580;2024-03-25T04:55:24;4.10;99.90
17701;DHT22;8969;48.576;12.580;2024-03-25T04:57:50;4.10;99.90
17701;DHT22;8969;48.576;12.580;2024-03-25T05:00:19;4.10;99.90
17701;DHT22;8969;48.576;12.580;2024-03-25T05:02:45;4.10;99.90
17701;DHT22;8969;48.576;12.580;2024-03-25T05:05:11;4.10;99.90
17701;DHT22;8969;48.576;12.580;2024-03-25T05:07:38;4.10;99.90
17701;DHT22;8969;48.576;12.580;2024-03-25T05:10:05;4.10;99.90
17701;DHT22;8969;48.576;12.580;2024-03-25T05:12:32;4.20;99.90
17701;DHT22;8969;48.576;12.580;2024-03-25T05:14:58;4.20;99.90
17701;DHT22;8969;48.576;12.580;2024-03-25T05:17:25;4.20;99.90
17701;DHT22;8969;48.576;12.580;2024-03-25T05:19:51;4.30;99.90
17701;DHT22;8969;48.576;12.580;2024-03-25T05:22:18;4.30;99.90
17701;DHT22;8969;48.576;12.580;2024-03-25T05:24:44;4.30;99.90
17701;DHT22;8969;48.576;12.580;2024-03-25T05:27:10;4.40;99.90
17701;DHT22;8969;48.576;12.580;2024-03-25T05:29:36;4.40;99.90
17701;DHT22;8969;48.576;12.580;2024-03-25T05:32:03;4.40;99.90
17701;DHT22;8969;48.576;12.580;2024-03-25T05:34:31;4.50;99.90
17701;DHT22;8969;48.576;12.580;2024-03-25T05:36:57;4.50;99.90
17701;DHT22;8969;48.576;12.580;2024-03-25T05:39:24;4.50;99.90
17701;DHT22;8969;48.576;12.580;2024-03-25T05:41:51;4.60;99.90
17701;DHT22;8969;48.576;12.580;2024-03-25T05:44:17;4.50;99.90
17701;DHT22;8969;48.576;12.580;2024-03-25T05:46:43;4.60;99.90
17701;DHT22;8969;48.576;12.580;2024-03-25T05:49:09;4.60;99.90
17701;DHT22;8969;48.576;12.580;2024-03-25T05:51:37;4.60;99.90
17701;DHT22;8969;48.576;12.580;2024-03-25T05:54:04;4.60;99.90
17701;DHT22;8969;48.576;12.580;2024-03-25T05:56:30;4.60;99.90
17701;DHT22;8969;48.576;12.580;2024-03-25T05:58:56;4.70;99.90
17701;DHT22;8969;48.576;12.580;2024-03-25T06:01:23;4.70;99.90
17701;DHT22;8969;48.576;12.580;2024-03-25T06:03:49;4.70;99.90
17701;DHT22;8969;48.576;12.580;2024-03-25T06:06:15;4.70;99.90
17701;DHT22;8969;48.576;12.580;2024-03-25T06:08:43;4.80;99.90
17701;DHT22;8969;48.576;12.580;2024-03-25T06:11:09;4.80;99.90
17701;DHT22;8969;48.576;12.580;2024-03-25T06:13:36;4.80;99.90
17701;DHT22;8969;48.576;12.580;2024-03-25T06:16:03;4.90;99.90
17701;DHT22;8969;48.576;12.580;2024-03-25T06:18:29;4.80;99.90
17701;DHT22;8969;48.576;12.580;2024-03-25T06:20:55;4.90;99.90
17701;DHT22;8969;48.576;12.580;2024-03-25T06:23:22;4.90;99.90
17701;DHT22;8969;48.576;12.580;2024-03-25T06:25:51;5.00;99.90
17701;DHT22;8969;48.576;12.580;2024-03-25T06:28:17;5.00;99.90
17701;DHT22;8969;48.576;12.580;2024-03-25T06:30:45;5.00;99.90
17701;DHT22;8969;48.576;12.580;2024-03-25T06:33:29;5.00;99.90
17701;DHT22;8969;48.576;12.580;2024-03-25T06:36:14;5.00;99.90
17701;DHT22;8969;48.576;12.580;2024-03-25T06:38:40;5.10;99.90
17701;DHT22;8969;48.576;12.580;2024-03-25T06:41:08;5.20;99.90
17701;DHT22;8969;48.576;12.580;2024-03-25T06:43:35;5.40;99.90
17701;DHT22;8969;48.576;12.580;2024-03-25T06:46:02;5.60;99.90
17701;DHT22;8969;48.576;12.580;2024-03-25T06:48:29;5.60;99.90
17701;DHT22;8969;48.576;12.580;2024-03-25T06:50:56;5.70;99.90
17701;DHT22;8969;48.576;12.580;2024-03-25T06:53:23;5.70;99.90
17701;DHT22;8969;48.576;12.580;2024-03-25T06:55:54;5.70;99.90
17701;DHT22;8969;48.576;12.580;2024-03-25T06:58:23;5.70;99.90
17701;DHT22;8969;48.576;12.580;2024-03-25T07:00:49;5.70;99.90
17701;DHT22;8969;48.576;12.580;2024-03-25T07:03:16;5.60;99.90
17701;DHT22;8969;48.576;12.580;2024-03-25T07:05:45;5.60;99.90
17701;DHT22;8969;48.576;12.580;2024-03-25T07:08:12;5.50;99.90
17701;DHT22;8969;48.576;12.580;2024-03-25T07:10:38;5.50;99.90
17701;DHT22;8969;48.576;12.580;2024-03-25T07:13:04;5.60;99.90
17701;DHT22;8969;48.576;12.580;2024-03-25T07:15:32;5.60;99.90
17701;DHT22;8969;48.576;12.580;2024-03-25T07:17:59;5.60;99.90
17701;DHT22;8969;48.576;12.580;2024-03-25T07:20:26;5.70;99.90
17701;DHT22;8969;48.576;12.580;2024-03-25T07:22:52;5.70;99.90
17701;DHT22;8969;48.576;12.580;2024-03-25T07:25:19;5.70;99.90
17701;DHT22;8969;48.576;12.580;2024-03-25T07:27:45;5.80;99.90
17701;DHT22;8969;48.576;12.580;2024-03-25T07:30:12;5.90;99.90
17701;DHT22;8969;48.576;12.580;2024-03-25T07:32:39;6.00;99.90
17701;DHT22;8969;48.576;12.580;2024-03-25T07:35:06;6.00;99.90
17701;DHT22;8969;48.576;12.580;2024-03-25T07:37:32;6.10;99.90
17701;DHT22;8969;48.576;12.580;2024-03-25T07:39:59;6.10;99.90
17701;DHT22;8969;48.576;12.580;2024-03-25T07:42:28;6.20;99.90
17701;DHT22;8969;48.576;12.580;2024-03-25T07:44:54;6.30;99.90
17701;DHT22;8969;48.576;12.580;2024-03-25T07:47:20;6.40;99.90
17701;DHT22;8969;48.576;12.580;2024-03-25T07:49:48;6.40;99.90
17701;DHT22;8969;48.576;12.580;2024-03-25T07:52:14;6.40;99.90
17701;DHT22;8969;48.576;12.580;2024-03-25T07:54:41;6.50;99.90
17701;DHT22;8969;48.576;12.580;2024-03-25T07:57:07;6.30;99.90
17701;DHT22;8969;48.576;12.580;2024-03-25T07:59:33;6.30;99.90
17701;DHT22;8969;48.576;12.580;2024-03-25T08:01:59;6.40;99.90
17701;DHT22;8969;48.576;12.580;2024-03-25T08:04:26;6.40;99.90
17701;DHT22;8969;48.576;12.580;2024-03-25T08:06:53;6.50;99.90
17701;DHT22;8969;48.576;12.580;2024-03-25T08:09:19;6.50;99.90
17701;DHT22;8969;48.576;12.580;2024-03-25T08:11:47;6.50;99.90
17701;DHT22;8969;48.576;12.580;2024-03-25T08:14:14;6.60;99.90
17701;DHT22;8969;48.576;12.580;2024-03-25T08:16:40;6.50;99.90
17701;DHT22;8969;48.576;12.580;2024-03-25T08:19:06;6.70;99.90
17701;DHT22;8969;48.576;12.580;2024-03-25T08:21:32;6.80;99.90
17701;DHT22;8969;48.576;12.580;2024-03-25T08:24:00;6.90;99.90
17701;DHT22;8969;48.576;12.580;2024-03-25T08:26:27;7.10;99.90
17701;DHT22;8969;48.576;12.580;2024-03-25T08:28:53;7.30;99.90
17701;DHT22;8969;48.576;12.580;2024-03-25T08:31:19;7.60;99.90
17701;DHT22;8969;48.576;12.580;2024-03-25T08:33:45;7.80;99.90
17701;DHT22;8969;48.576;12.580;2024-03-25T08:36:12;7.90;99.90
17701;DHT22;8969;48.576;12.580;2024-03-25T08:38:38;7.70;99.90
17701;DHT22;8969;48.576;12.580;2024-03-25T08:41:08;7.70;99.90
17701;DHT22;8969;48.576;12.580;2024-03-25T08:43:34;7.80;99.90
17701;DHT22;8969;48.576;12.580;2024-03-25T08:46:00;7.90;99.90
17701;DHT22;8969;48.576;12.580;2024-03-25T08:48:26;7.90;99.90
17701;DHT22;8969;48.576;12.580;2024-03-25T08:50:53;8.00;99.90
17701;DHT22;8969;48.576;12.580;2024-03-25T08:53:19;8.20;99.90
17701;DHT22;8969;48.576;12.580;2024-03-25T08:55:45;8.30;99.90
17701;DHT22;8969;48.576;12.580;2024-03-25T08:58:13;8.20;99.90
17701;DHT22;8969;48.576;12.580;2024-03-25T09:00:40;8.00;99.90
17701;DHT22;8969;48.576;12.580;2024-03-25T09:03:06;8.20;99.90
17701;DHT22;8969;48.576;12.580;2024-03-25T09:05:32;8.00;99.90
17701;DHT22;8969;48.576;12.580;2024-03-25T09:07:59;8.30;99.90
17701;DHT22;8969;48.576;12.580;2024-03-25T09:10:25;8.60;99.90
17701;DHT22;8969;48.576;12.580;2024-03-25T09:13:10;8.70;99.90
17701;DHT22;8969;48.576;12.580;2024-03-25T09:15:38;8.60;99.90
17701;DHT22;8969;48.576;12.580;2024-03-25T09:18:04;8.40;99.90
17701;DHT22;8969;48.576;12.580;2024-03-25T09:20:31;8.20;99.90
17701;DHT22;8969;48.576;12.580;2024-03-25T09:22:57;8.30;99.90
17701;DHT22;8969;48.576;12.580;2024-03-25T09:25:23;8.50;99.90
17701;DHT22;8969;48.576;12.580;2024-03-25T09:27:50;8.80;99.90
17701;DHT22;8969;48.576;12.580;2024-03-25T09:30:17;9.30;99.90
17701;DHT22;8969;48.576;12.580;2024-03-25T09:32:45;9.50;99.90
17701;DHT22;8969;48.576;12.580;2024-03-25T09:35:12;9.40;99.90
17701;DHT22;8969;48.576;12.580;2024-03-25T09:37:38;9.60;99.90
17701;DHT22;8969;48.576;12.580;2024-03-25T09:40:06;9.80;99.90
17701;DHT22;8969;48.576;12.580;2024-03-25T09:42:34;10.20;99.90
17701;DHT22;8969;48.576;12.580;2024-03-25T09:45:05;10.10;99.90
17701;DHT22;8969;48.576;12.580;2024-03-25T09:47:34;9.80;99.90
17701;DHT22;8969;48.576;12.580;2024-03-25T09:50:02;9.80;99.90
17701;DHT22;8969;48.576;12.580;2024-03-25T09:52:30;10.00;99.90
17701;DHT22;8969;48.576;12.580;2024-03-25T09:54:57;9.50;99.90
17701;DHT22;8969;48.576;12.580;2024-03-25T09:57:24;9.30;99.90
17701;DHT22;8969;48.576;12.580;2024-03-25T09:59:51;9.10;99.90
17701;DHT22;8969;48.576;12.580;2024-03-25T10:02:17;8.90;99.90
17701;DHT22;8969;48.576;12.580;2024-03-25T10:04:46;9.30;99.90
17701;DHT22;8969;48.576;12.580;2024-03-25T10:07:21;9.80;99.90
17701;DHT22;8969;48.576;12.580;2024-03-25T10:09:48;10.00;99.90
17701;DHT22;8969;48.576;12.580;2024-03-25T10:12:14;10.30;99.90
17701;DHT22;8969;48.576;12.580;2024-03-25T10:14:41;10.90;99.90
17701;DHT22;8969;48.576;12.580;2024-03-25T10:17:07;11.00;99.90
17701;DHT22;8969;48.576;12.580;2024-03-25T10:19:34;10.40;99.90
17701;DHT22;8969;48.576;12.580;2024-03-25T10:22:04;10.40;99.90
17701;DHT22;8969;48.576;12.580;2024-03-25T10:24:43;9.90;99.90
17701;DHT22;8969;48.576;12.580;2024-03-25T10:27:11;9.50;99.90
17701;DHT22;8969;48.576;12.580;2024-03-25T10:29:37;9.30;99.90
17701;DHT22;8969;48.576;12.580;2024-03-25T10:32:04;9.10;99.90
17701;DHT22;8969;48.576;12.580;2024-03-25T10:34:31;8.90;99.90
17701;DHT22;8969;48.576;12.580;2024-03-25T10:36:57;8.90;99.90
17701;DHT22;8969;48.576;12.580;2024-03-25T10:39:27;8.90;99.90
17701;DHT22;8969;48.576;12.580;2024-03-25T10:41:58;8.90;99.90
17701;DHT22;8969;48.576;12.580;2024-03-25T10:44:26;8.80;99.90
17701;DHT22;8969;48.576;12.580;2024-03-25T10:46:57;8.80;99.90
17701;DHT22;8969;48.576;12.580;2024-03-25T10:49:32;8.80;99.90
17701;DHT22;8969;48.576;12.580;2024-03-25T10:52:01;9.00;99.90
17701;DHT22;8969;48.576;12.580;2024-03-25T10:54:30;9.10;99.90
17701;DHT22;8969;48.576;12.580;2024-03-25T10:56:58;9.10;99.90
17701;DHT22;8969;48.576;12.580;2024-03-25T10:59:26;9.10;99.90
17701;DHT22;8969;48.576;12.580;2024-03-25T11:01:53;9.20;99.90
17701;DHT22;8969;48.576;12.580;2024-03-25T11:04:20;9.30;99.90
17701;DHT22;8969;48.576;12.580;2024-03-25T11:06:46;9.30;99.90
17701;DHT22;8969;48.576;12.580;2024-03-25T11:09:22;9.40;99.90
17701;DHT22;8969;48.576;12.580;2024-03-25T11:11:50;9.30;99.90
17701;DHT22;8969;48.576;12.580;2024-03-25T11:14:18;9.30;99.90
17701;DHT22;8969;48.576;12.580;2024-03-25T11:16:51;9.50;99.90
17701;DHT22;8969;48.576;12.580;2024-03-25T11:19:18;9.30;99.90
17701;DHT22;8969;48.576;12.580;2024-03-25T11:21:44;9.80;99.90
17701;DHT22;8969;48.576;12.580;2024-03-25T11:24:11;9.90;99.90
17701;DHT22;8969;48.576;12.580;2024-03-25T11:26:41;9.70;99.90
17701;DHT22;8969;48.576;12.580;2024-03-25T11:29:08;9.70;99.90
17701;DHT22;8969;48.576;12.580;2024-03-25T11:31:39;9.70;99.90
17701;DHT22;8969;48.576;12.580;2024-03-25T11:34:06;9.70;99.90
17701;DHT22;8969;48.576;12.580;2024-03-25T11:36:32;9.70;99.90
17701;DHT22;8969;48.576;12.580;2024-03-25T11:38:59;10.20;99.90
17701;DHT22;8969;48.576;12.580;2024-03-25T11:41:26;10.80;99.90
17701;DHT22;8969;48.576;12.580;2024-03-25T11:43:52;10.70;99.90
17701;DHT22;8969;48.576;12.580;2024-03-25T11:46:19;10.80;99.90
17701;DHT22;8969;48.576;12.580;2024-03-25T11:48:47;10.40;99.40
17701;DHT22;8969;48.576;12.580;2024-03-25T11:51:16;10.40;99.90
17701;DHT22;8969;48.576;12.580;2024-03-25T11:53:42;10.50;99.90
17701;DHT22;8969;48.576;12.580;2024-03-25T11:56:10;10.80;99.90
17701;DHT22;8969;48.576;12.580;2024-03-25T11:58:37;10.80;99.90
17701;DHT22;8969;48.576;12.580;2024-03-25T12:01:04;10.80;99.60
17701;DHT22;8969;48.576;12.580;2024-03-25T12:03:33;10.80;98.60
17701;DHT22;8969;48.576;12.580;2024-03-25T12:06:01;10.70;97.40
17701;DHT22;8969;48.576;12.580;2024-03-25T12:08:27;10.70;95.70
17701;DHT22;8969;48.576;12.580;2024-03-25T12:10:54;10.50;97.20
17701;DHT22;8969;48.576;12.580;2024-03-25T12:13:39;10.50;99.50
17701;DHT22;8969;48.576;12.580;2024-03-25T12:16:09;10.40;98.50
17701;DHT22;8969;48.576;12.580;2024-03-25T12:18:40;10.30;97.70
17701;DHT22;8969;48.576;12.580;2024-03-25T12:21:08;10.20;99.20
17701;DHT22;8969;48.576;12.580;2024-03-25T12:23:36;10.30;99.90
17701;DHT22;8969;48.576;12.580;2024-03-25T12:26:03;10.30;99.90
17701;DHT22;8969;48.576;12.580;2024-03-25T12:28:31;10.30;99.90
17701;DHT22;8969;48.576;12.580;2024-03-25T12:30:57;10.30;98.80
17701;DHT22;8969;48.576;12.580;2024-03-25T12:33:24;10.30;97.90
17701;DHT22;8969;48.576;12.580;2024-03-25T12:35:50;10.60;99.40
17701;DHT22;8969;48.576;12.580;2024-03-25T12:38:26;10.70;98.30
17701;DHT22;8969;48.576;12.580;2024-03-25T12:40:53;10.60;99.50
17701;DHT22;8969;48.576;12.580;2024-03-25T12:43:20;11.00;99.30
17701;DHT22;8969;48.576;12.580;2024-03-25T12:45:46;10.80;99.10
17701;DHT22;8969;48.576;12.580;2024-03-25T12:48:13;10.40;99.40
17701;DHT22;8969;48.576;12.580;2024-03-25T12:50:39;10.50;99.30
17701;DHT22;8969;48.576;12.580;2024-03-25T12:53:05;10.60;98.40
17701;DHT22;8969;48.576;12.580;2024-03-25T12:55:33;10.90;92.70
17701;DHT22;8969;48.576;12.580;2024-03-25T12:57:59;11.30;92.40
17701;DHT22;8969;48.576;12.580;2024-03-25T13:00:25;11.60;90.80
17701;DHT22;8969;48.576;12.580;2024-03-25T13:02:52;11.70;90.40
17701;DHT22;8969;48.576;12.580;2024-03-25T13:05:18;11.80;92.50
17701;DHT22;8969;48.576;12.580;2024-03-25T13:07:44;11.70;90.90
17701;DHT22;8969;48.576;12.580;2024-03-25T13:10:10;12.00;93.10
17701;DHT22;8969;48.576;12.580;2024-03-25T13:12:38;12.20;94.90
17701;DHT22;8969;48.576;12.580;2024-03-25T13:15:06;12.10;92.90
17701;DHT22;8969;48.576;12.580;2024-03-25T13:17:32;12.20;92.20
17701;DHT22;8969;48.576;12.580;2024-03-25T13:19:58;12.20;88.40
17701;DHT22;8969;48.576;12.580;2024-03-25T13:22:25;12.20;86.60
17701;DHT22;8969;48.576;12.580;2024-03-25T13:24:51;12.20;88.00
17701;DHT22;8969;48.576;12.580;2024-03-25T13:27:17;12.40;86.70
17701;DHT22;8969;48.576;12.580;2024-03-25T13:29:45;12.20;84.30
17701;DHT22;8969;48.576;12.580;2024-03-25T13:32:14;12.20;85.70
17701;DHT22;8969;48.576;12.580;2024-03-25T13:34:40;12.20;79.30
17701;DHT22;8969;48.576;12.580;2024-03-25T13:37:07;12.20;80.00
17701;DHT22;8969;48.576;12.580;2024-03-25T13:39:33;12.40;79.80
17701;DHT22;8969;48.576;12.580;2024-03-25T13:41:59;12.40;80.70
17701;DHT22;8969;48.576;12.580;2024-03-25T13:44:27;12.50;87.40
17701;DHT22;8969;48.576;12.580;2024-03-25T13:46:55;12.40;84.60
17701;DHT22;8969;48.576;12.580;2024-03-25T13:49:21;12.50;81.30
17701;DHT22;8969;48.576;12.580;2024-03-25T13:51:47;12.30;79.80
17701;DHT22;8969;48.576;12.580;2024-03-25T13:54:13;12.20;81.70
17701;DHT22;8969;48.576;12.580;2024-03-25T13:56:39;12.10;80.40
17701;DHT22;8969;48.576;12.580;2024-03-25T13:59:06;12.10;82.80
17701;DHT22;8969;48.576;12.580;2024-03-25T14:01:32;11.80;81.80
17701;DHT22;8969;48.576;12.580;2024-03-25T14:04:00;11.40;77.30
17701;DHT22;8969;48.576;12.580;2024-03-25T14:06:27;11.50;85.80
17701;DHT22;8969;48.576;12.580;2024-03-25T14:08:53;11.50;87.20
17701;DHT22;8969;48.576;12.580;2024-03-25T14:11:19;11.40;83.70
17701;DHT22;8969;48.576;12.580;2024-03-25T14:13:45;11.60;84.90
17701;DHT22;8969;48.576;12.580;2024-03-25T14:16:12;11.50;79.00
17701;DHT22;8969;48.576;12.580;2024-03-25T14:18:38;11.50;82.70
17701;DHT22;8969;48.576;12.580;2024-03-25T14:21:05;11.50;83.80
17701;DHT22;8969;48.576;12.580;2024-03-25T14:23:32;11.60;88.50
17701;DHT22;8969;48.576;12.580;2024-03-25T14:25:58;11.60;86.30
17701;DHT22;8969;48.576;12.580;2024-03-25T14:28:25;11.50;85.00
17701;DHT22;8969;48.576;12.580;2024-03-25T14:30:51;11.50;86.60
17701;DHT22;8969;48.576;12.580;2024-03-25T14:33:18;11.50;86.20
17701;DHT22;8969;48.576;12.580;2024-03-25T14:35:44;11.40;85.50
17701;DHT22;8969;48.576;12.580;2024-03-25T14:38:12;11.40;87.00
17701;DHT22;8969;48.576;12.580;2024-03-25T14:40:39;11.40;87.50
17701;DHT22;8969;48.576;12.580;2024-03-25T14:43:05;11.40;82.70
17701;DHT22;8969;48.576;12.580;2024-03-25T14:45:31;11.20;80.80
17701;DHT22;8969;48.576;12.580;2024-03-25T14:47:57;11.10;78.60
17701;DHT22;8969;48.576;12.580;2024-03-25T14:50:24;11.10;83.40
17701;DHT22;8969;48.576;12.580;2024-03-25T14:52:50;11.10;84.60
17701;DHT22;8969;48.576;12.580;2024-03-25T14:55:18;11.00;84.50
17701;DHT22;8969;48.576;12.580;2024-03-25T14:57:45;10.90;79.20
17701;DHT22;8969;48.576;12.580;2024-03-25T15:00:12;10.80;80.60
17701;DHT22;8969;48.576;12.580;2024-03-25T15:02:39;10.70;83.70
17701;DHT22;8969;48.576;12.580;2024-03-25T15:05:05;10.60;85.30
17701;DHT22;8969;48.576;12.580;2024-03-25T15:07:31;10.60;87.10
17701;DHT22;8969;48.576;12.580;2024-03-25T15:09:57;10.60;88.40
17701;DHT22;8969;48.576;12.580;2024-03-25T15:12:25;10.50;86.60
17701;DHT22;8969;48.576;12.580;2024-03-25T15:14:52;10.50;89.90
17701;DHT22;8969;48.576;12.580;2024-03-25T15:17:18;10.40;88.30
17701;DHT22;8969;48.576;12.580;2024-03-25T15:19:44;10.30;85.40
17701;DHT22;8969;48.576;12.580;2024-03-25T15:22:11;10.20;86.40
17701;DHT22;8969;48.576;12.580;2024-03-25T15:24:37;10.10;85.10
17701;DHT22;8969;48.576;12.580;2024-03-25T15:27:04;10.10;84.60
17701;DHT22;8969;48.576;12.580;2024-03-25T15:29:31;10.00;86.10
17701;DHT22;8969;48.576;12.580;2024-03-25T15:31:58;10.00;88.30
17701;DHT22;8969;48.576;12.580;2024-03-25T15:34:24;9.90;89.70
17701;DHT22;8969;48.576;12.580;2024-03-25T15:36:50;9.90;90.50
17701;DHT22;8969;48.576;12.580;2024-03-25T15:39:18;9.90;90.50
17701;DHT22;8969;48.576;12.580;2024-03-25T15:41:44;9.80;90.40